createdAt,value
2018-11-11T00:01:38.990Z,100.00
2018-11-11T00:04:08.817Z,100.00
2018-11-11T00:06:38.989Z,100.00
2018-11-11T00:09:09.842Z,100.00
2018-11-11T00:11:39.330Z,100.00
2018-11-11T00:14:09.137Z,100.00
2018-11-11T00:16:39.674Z,100.00
2018-11-11T00:19:09.382Z,100.00
2018-11-11T00:21:39.472Z,100.00
2018-11-11T00:24:09.321Z,100.00
2018-11-11T00:26:38.790Z,100.00
2018-11-11T00:29:08.526Z,100.00
2018-11-11T00:31:38.593Z,100.00
2018-11-11T00:34:08.092Z,100.00
2018-11-11T00:36:37.889Z,100.00
2018-11-11T00:39:10.081Z,100.00
2018-11-11T00:41:40.178Z,100.00
2018-11-11T00:44:09.859Z,100.00
2018-11-11T00:46:39.321Z,100.00
2018-11-11T00:49:09.293Z,100.00
2018-11-11T00:51:39.111Z,100.00
2018-11-11T00:54:08.674Z,100.00
2018-11-11T00:56:38.619Z,100.00
2018-11-11T00:59:08.216Z,100.00
2018-11-11T01:01:38.183Z,100.00
2018-11-11T01:04:08.423Z,100.00
2018-11-11T01:06:37.857Z,100.00
2018-11-11T01:09:08.254Z,100.00
2018-11-11T01:11:38.074Z,100.00
2018-11-11T01:14:07.617Z,100.00
2018-11-11T01:16:37.120Z,100.00
2018-11-11T01:19:07.234Z,100.00
2018-11-11T01:21:37.286Z,100.00
2018-11-11T01:24:06.748Z,100.00
2018-11-11T01:26:36.263Z,100.00
2018-11-11T01:29:05.953Z,100.00
2018-11-11T01:31:35.808Z,100.00
2018-11-11T01:34:05.738Z,100.00
2018-11-11T01:36:35.169Z,100.00
2018-11-11T01:39:05.157Z,100.00
2018-11-11T01:41:34.605Z,100.00
2018-11-11T01:44:04.075Z,100.00
2018-11-11T01:46:33.568Z,100.00
2018-11-11T01:49:03.014Z,100.00
2018-11-11T01:51:32.795Z,100.00
2018-11-11T01:54:02.859Z,100.00
2018-11-11T01:56:32.702Z,100.00
2018-11-11T01:59:02.152Z,100.00
2018-11-11T02:01:32.145Z,100.00
2018-11-11T02:04:02.075Z,100.00
2018-11-11T02:06:31.550Z,100.00
2018-11-11T02:09:01.612Z,100.00
2018-11-11T02:11:31.376Z,100.00
2018-11-11T02:14:01.911Z,100.00
2018-11-11T02:16:31.680Z,100.00
2018-11-11T02:19:01.117Z,100.00
2018-11-11T02:21:30.984Z,100.00
2018-11-11T02:24:01.156Z,100.00
2018-11-11T02:26:30.934Z,100.00
2018-11-11T02:29:00.778Z,100.00
2018-11-11T02:31:30.563Z,100.00
2018-11-11T02:34:01.070Z,100.00
2018-11-11T02:36:30.844Z,100.00
2018-11-11T02:39:00.647Z,100.00
2018-11-11T02:41:30.572Z,100.00
2018-11-11T02:44:00.990Z,100.00
2018-11-11T02:46:30.437Z,100.00
2018-11-11T02:49:00.167Z,100.00
2018-11-11T02:51:29.957Z,100.00
2018-11-11T02:53:59.729Z,100.00
2018-11-11T02:56:29.538Z,100.00
2018-11-11T02:58:59.286Z,100.00
2018-11-11T03:01:29.073Z,100.00
2018-11-11T03:03:58.564Z,100.00
2018-11-11T03:06:28.002Z,100.00
2018-11-11T03:08:57.860Z,100.00
2018-11-11T03:11:27.633Z,100.00
2018-11-11T03:13:57.415Z,100.00
2018-11-11T03:16:27.394Z,100.00
2018-11-11T03:18:57.194Z,100.00
2018-11-11T03:21:26.981Z,100.00
2018-11-11T03:23:57.123Z,100.00
2018-11-11T03:26:26.962Z,100.00
2018-11-11T03:28:56.422Z,100.00
2018-11-11T03:31:26.771Z,100.00
2018-11-11T03:33:56.927Z,100.00
2018-11-11T03:36:26.681Z,100.00
2018-11-11T03:38:56.191Z,100.00
2018-11-11T03:41:25.681Z,100.00
2018-11-11T03:43:55.685Z,100.00
2018-11-11T03:46:25.495Z,100.00
2018-11-11T03:48:55.274Z,100.00
2018-11-11T03:51:25.150Z,100.00
2018-11-11T03:54:13.845Z,100.00
2018-11-11T03:56:43.668Z,100.00
2018-11-11T03:59:13.457Z,100.00
2018-11-11T04:01:43.177Z,100.00
2018-11-11T04:04:13.212Z,100.00
2018-11-11T04:07:01.371Z,100.00
2018-11-11T04:09:49.517Z,100.00
2018-11-11T04:12:19.723Z,100.00
2018-11-11T04:14:49.484Z,100.00
2018-11-11T04:17:23.227Z,100.00
2018-11-11T04:19:53.333Z,100.00
2018-11-11T04:22:23.508Z,100.00
2018-11-11T04:24:53.997Z,100.00
2018-11-11T04:27:42.715Z,100.00
2018-11-11T04:30:31.184Z,100.00
2018-11-11T04:33:01.349Z,100.00
2018-11-11T04:35:31.424Z,100.00
2018-11-11T04:38:01.244Z,100.00
2018-11-11T04:40:31.362Z,100.00
2018-11-11T04:43:01.479Z,100.00
2018-11-11T04:45:31.327Z,100.00
2018-11-11T04:48:00.813Z,100.00
2018-11-11T04:50:30.989Z,100.00
2018-11-11T04:53:00.799Z,100.00
2018-11-11T04:55:30.550Z,100.00
2018-11-11T04:58:00.373Z,100.00
2018-11-11T05:00:30.444Z,100.00
2018-11-11T05:03:00.606Z,100.00
2018-11-11T05:05:30.164Z,100.00
2018-11-11T05:07:59.617Z,100.00
2018-11-11T05:10:29.163Z,100.00
2018-11-11T05:12:59.272Z,100.00
2018-11-11T05:15:29.058Z,100.00
2018-11-11T05:17:58.561Z,100.00
2018-11-11T05:20:28.100Z,100.00
2018-11-11T05:22:57.641Z,100.00
2018-11-11T05:25:27.583Z,100.00
2018-11-11T05:28:16.098Z,100.00
2018-11-11T05:30:45.614Z,100.00
2018-11-11T05:33:16.017Z,100.00
2018-11-11T05:35:45.549Z,100.00
2018-11-11T05:38:15.258Z,100.00
2018-11-11T05:40:45.001Z,100.00
2018-11-11T05:43:14.788Z,100.00
2018-11-11T05:45:44.615Z,100.00
2018-11-11T05:48:14.551Z,100.00
2018-11-11T05:51:03.078Z,100.00
2018-11-11T05:53:51.176Z,100.00
2018-11-11T05:56:20.931Z,100.00
2018-11-11T05:59:09.031Z,100.00
2018-11-11T06:01:38.819Z,100.00
2018-11-11T06:04:08.587Z,100.00
2018-11-11T06:06:38.372Z,100.00
2018-11-11T06:09:10.563Z,100.00
2018-11-11T06:11:59.324Z,100.00
2018-11-11T06:14:29.453Z,100.00
2018-11-11T06:16:58.915Z,100.00
2018-11-11T06:19:28.697Z,100.00
2018-11-11T06:21:58.820Z,100.00
2018-11-11T06:24:47.518Z,100.00
2018-11-11T06:27:36.021Z,100.00
2018-11-11T06:30:05.888Z,100.00
2018-11-11T06:32:54.392Z,100.00
2018-11-11T06:35:23.882Z,100.00
2018-11-11T06:37:53.311Z,100.00
2018-11-11T06:40:23.017Z,100.00
2018-11-11T06:42:52.445Z,100.00
2018-11-11T06:45:21.907Z,100.00
2018-11-11T06:47:52.399Z,100.00
2018-11-11T06:50:40.704Z,100.00
2018-11-11T06:53:10.152Z,100.00
2018-11-11T06:55:39.614Z,100.00
2018-11-11T06:58:09.409Z,100.00
2018-11-11T07:00:38.823Z,100.00
2018-11-11T07:03:46.464Z,100.00
2018-11-11T07:06:15.981Z,100.00
2018-11-11T07:09:04.405Z,100.00
2018-11-11T07:11:33.921Z,100.00
2018-11-11T07:14:03.768Z,100.00
2018-11-11T07:16:33.161Z,100.00
2018-11-11T07:19:02.614Z,100.00
2018-11-11T07:21:32.442Z,100.00
2018-11-11T07:24:02.291Z,100.00
2018-11-11T07:26:32.351Z,100.00
2018-11-11T07:29:20.728Z,100.00
2018-11-11T07:31:50.984Z,100.00
2018-11-11T07:34:21.044Z,100.00
2018-11-11T07:36:50.886Z,100.00
2018-11-11T07:39:21.025Z,100.00
2018-11-11T07:41:50.756Z,100.00
2018-11-11T07:44:20.528Z,100.00
2018-11-11T07:47:08.918Z,100.00
2018-11-11T07:49:39.707Z,100.00
2018-11-11T07:52:28.360Z,100.00
2018-11-11T07:55:16.767Z,100.00
2018-11-11T07:57:46.588Z,100.00
2018-11-11T08:00:16.023Z,100.00
2018-11-11T08:02:46.042Z,100.00
2018-11-11T08:05:34.496Z,100.00
2018-11-11T08:08:04.527Z,100.00
2018-11-11T08:11:11.981Z,100.00
2018-11-11T08:14:00.289Z,100.00
2018-11-11T08:16:30.118Z,100.00
2018-11-11T08:18:59.876Z,100.00
2018-11-11T08:21:29.955Z,100.00
2018-11-11T08:24:00.243Z,100.00
2018-11-11T08:26:30.247Z,100.00
2018-11-11T08:29:00.136Z,100.00
2018-11-11T08:31:30.015Z,100.00
2018-11-11T08:34:00.603Z,100.00
2018-11-11T08:36:31.637Z,100.00
2018-11-11T08:39:01.948Z,100.00
2018-11-11T08:41:32.012Z,100.00
2018-11-11T08:44:01.503Z,100.00
2018-11-11T08:46:31.091Z,100.00
2018-11-11T08:49:00.827Z,100.00
2018-11-11T08:51:30.349Z,100.00
2018-11-11T08:54:00.260Z,100.00
2018-11-11T08:56:48.632Z,100.00
2018-11-11T08:59:36.763Z,100.00
2018-11-11T09:02:06.585Z,100.00
2018-11-11T09:04:36.106Z,100.00
2018-11-11T09:07:24.768Z,100.00
2018-11-11T09:09:54.287Z,100.00
2018-11-11T09:12:24.067Z,100.00
2018-11-11T09:14:54.259Z,100.00
2018-11-11T09:17:42.998Z,100.00
2018-11-11T09:20:13.383Z,100.00
2018-11-11T09:23:01.495Z,100.00
2018-11-11T09:25:49.883Z,100.00
2018-11-11T09:28:19.689Z,100.00
2018-11-11T09:31:08.891Z,100.00
2018-11-11T09:33:38.451Z,100.00
2018-11-11T09:36:08.714Z,100.00
2018-11-11T09:38:57.527Z,100.00
2018-11-11T09:41:26.882Z,100.00
2018-11-11T09:43:56.355Z,100.00
2018-11-11T09:46:26.497Z,100.00
2018-11-11T09:49:14.906Z,100.00
2018-11-11T09:51:44.608Z,100.00
2018-11-11T09:54:14.958Z,100.00
2018-11-11T09:56:44.246Z,100.00
2018-11-11T09:59:13.952Z,100.00
2018-11-11T10:02:02.437Z,100.00
2018-11-11T10:04:50.966Z,100.00
2018-11-11T10:07:39.044Z,100.00
2018-11-11T10:10:27.185Z,100.00
2018-11-11T10:13:15.581Z,100.00
2018-11-11T10:16:04.384Z,100.00
2018-11-11T10:18:53.136Z,100.00
2018-11-11T10:21:41.313Z,100.00
2018-11-11T10:24:23.537Z,100.00
2018-11-11T10:27:12.337Z,100.00
2018-11-11T10:30:00.398Z,100.00
2018-11-11T10:33:13.935Z,100.00
2018-11-11T10:36:21.309Z,100.00
2018-11-11T10:39:09.535Z,100.00
2018-11-11T10:42:16.578Z,100.00
2018-11-11T10:45:04.945Z,100.00
2018-11-11T10:47:53.133Z,100.00
2018-11-11T10:50:26.090Z,100.00
2018-11-11T10:52:56.503Z,100.00
2018-11-11T10:55:26.850Z,100.00
2018-11-11T10:57:57.018Z,100.00
2018-11-11T11:01:04.053Z,100.00
2018-11-11T11:03:52.611Z,100.00
2018-11-11T11:06:59.700Z,100.00
2018-11-11T11:09:48.462Z,100.00
2018-11-11T11:12:17.935Z,100.00
2018-11-11T11:14:47.419Z,100.00
2018-11-11T11:17:35.858Z,100.00
2018-11-11T11:20:06.053Z,100.00
2018-11-11T11:22:35.605Z,100.00
2018-11-11T11:25:24.402Z,100.00
2018-11-11T11:28:13.165Z,98.71
2018-11-11T11:30:43.037Z,98.14
2018-11-11T11:33:31.808Z,98.15
2018-11-11T11:36:20.210Z,98.78
2018-11-11T11:39:09.289Z,99.25
2018-11-11T11:41:57.720Z,99.25
2018-11-11T11:44:27.982Z,95.99
2018-11-11T11:47:16.403Z,95.94
2018-11-11T11:49:58.245Z,98.13
2018-11-11T11:52:27.723Z,98.13
2018-11-11T11:54:57.551Z,97.67
2018-11-11T11:57:45.945Z,97.68
2018-11-11T12:00:15.364Z,98.75
2018-11-11T12:03:03.816Z,93.99
2018-11-11T12:05:52.558Z,88.69
2018-11-11T12:08:22.547Z,88.69
2018-11-11T12:10:53.604Z,91.07
2018-11-11T12:13:42.306Z,87.83
2018-11-11T12:16:11.724Z,87.83
2018-11-11T12:18:42.145Z,86.38
2018-11-11T12:21:11.640Z,87.87
2018-11-11T12:24:00.835Z,90.26
2018-11-11T12:26:31.104Z,90.26
2018-11-11T12:29:20.237Z,88.25
2018-11-11T12:31:50.774Z,88.25
2018-11-11T12:34:38.865Z,89.50
2018-11-11T12:37:27.545Z,91.81
2018-11-11T12:39:57.534Z,86.38
2018-11-11T12:42:27.169Z,91.18
2018-11-11T12:44:57.307Z,88.77
2018-11-11T12:47:27.093Z,86.89
2018-11-11T12:50:17.997Z,87.52
2018-11-11T12:52:48.240Z,87.52
2018-11-11T12:55:18.106Z,89.98
2018-11-11T12:57:47.843Z,88.01
2018-11-11T13:00:35.974Z,90.04
2018-11-11T13:03:24.473Z,92.74
2018-11-11T13:05:53.893Z,90.12
2018-11-11T13:08:23.615Z,89.59
2018-11-11T13:10:53.326Z,90.60
2018-11-11T13:13:23.153Z,89.55
2018-11-11T13:15:53.462Z,89.24
2018-11-11T13:18:41.876Z,90.99
2018-11-11T13:21:11.322Z,91.67
2018-11-11T13:23:40.776Z,92.38
2018-11-11T13:26:10.220Z,90.78
2018-11-11T13:28:59.208Z,92.72
2018-11-11T13:31:29.393Z,92.72
2018-11-11T13:33:59.097Z,92.68
2018-11-11T13:36:48.115Z,92.92
2018-11-11T13:39:17.590Z,93.43
2018-11-11T13:42:06.056Z,93.58
2018-11-11T13:44:54.542Z,95.33
2018-11-11T13:47:24.648Z,95.33
2018-11-11T13:49:54.066Z,98.54
2018-11-11T13:52:42.504Z,97.53
2018-11-11T13:55:30.962Z,95.65
2018-11-11T13:58:00.762Z,98.08
2018-11-11T14:00:49.217Z,94.17
2018-11-11T14:03:19.276Z,96.74
2018-11-11T14:06:07.749Z,94.80
2018-11-11T14:08:37.190Z,95.49
2018-11-11T14:11:25.557Z,95.49
2018-11-11T14:14:13.997Z,97.47
2018-11-11T14:16:44.066Z,97.47
2018-11-11T14:19:32.548Z,97.37
2018-11-11T14:22:02.579Z,97.37
2018-11-11T14:24:32.054Z,98.65
2018-11-11T14:27:01.496Z,97.04
2018-11-11T14:29:31.540Z,98.80
2018-11-11T14:32:01.038Z,100.00
2018-11-11T14:34:31.121Z,100.00
2018-11-11T14:37:19.913Z,100.00
2018-11-11T14:39:50.496Z,100.00
2018-11-11T14:42:19.892Z,97.78
2018-11-11T14:44:50.133Z,98.67
2018-11-11T14:47:20.473Z,95.69
2018-11-11T14:49:49.941Z,95.41
2018-11-11T14:52:38.554Z,97.78
2018-11-11T14:55:31.688Z,98.92
2018-11-11T14:58:20.191Z,100.00
2018-11-11T15:01:08.534Z,100.00
2018-11-11T15:03:56.946Z,100.00
2018-11-11T15:06:26.718Z,100.00
2018-11-11T15:09:15.165Z,100.00
2018-11-11T15:12:03.590Z,100.00
2018-11-11T15:14:33.033Z,100.00
2018-11-11T15:17:02.880Z,100.00
2018-11-11T15:19:32.972Z,100.00
2018-11-11T15:22:02.313Z,100.00
2018-11-11T15:24:50.801Z,100.00
2018-11-11T15:27:20.736Z,100.00
2018-11-11T15:30:10.856Z,100.00
2018-11-11T15:32:40.351Z,100.00
2018-11-11T15:35:29.555Z,100.00
2018-11-11T15:37:59.105Z,100.00
2018-11-11T15:40:47.249Z,100.00
2018-11-11T15:43:17.064Z,100.00
2018-11-11T15:45:46.479Z,100.00
2018-11-11T15:48:15.909Z,100.00
2018-11-11T15:50:45.770Z,100.00
2018-11-11T15:53:15.552Z,100.00
2018-11-11T15:55:45.470Z,100.00
2018-11-11T15:58:15.257Z,100.00
2018-11-11T16:01:03.623Z,100.00
2018-11-11T16:03:52.071Z,100.00
2018-11-11T16:06:40.429Z,100.00
2018-11-11T16:09:10.903Z,100.00
2018-11-11T16:11:59.040Z,100.00
2018-11-11T16:14:28.481Z,100.00
2018-11-11T16:16:57.952Z,100.00
2018-11-11T16:19:27.769Z,100.00
2018-11-11T16:21:57.286Z,100.00
2018-11-11T16:24:27.028Z,100.00
2018-11-11T16:26:56.447Z,100.00
2018-11-11T16:29:25.927Z,100.00
2018-11-11T16:31:55.758Z,100.00
2018-11-11T16:34:25.789Z,100.00
2018-11-11T16:36:55.288Z,100.00
2018-11-11T16:39:43.760Z,100.00
2018-11-11T16:42:13.465Z,100.00
2018-11-11T16:44:42.952Z,100.00
2018-11-11T16:47:12.410Z,100.00
2018-11-11T16:49:41.873Z,100.00
2018-11-11T16:52:30.279Z,100.00
2018-11-11T16:55:20.387Z,100.00
2018-11-11T16:57:49.978Z,100.00
2018-11-11T17:00:20.849Z,100.00
2018-11-11T17:02:51.249Z,100.00
2018-11-11T17:05:39.761Z,100.00
2018-11-11T17:08:09.852Z,100.00
2018-11-11T17:10:39.617Z,100.00
2018-11-11T17:13:13.561Z,100.00
2018-11-11T17:15:43.354Z,100.00
2018-11-11T17:18:31.801Z,100.00
2018-11-11T17:21:01.340Z,100.00
2018-11-11T17:23:30.996Z,100.00
2018-11-11T17:26:00.425Z,100.00
2018-11-11T17:28:29.897Z,100.00
2018-11-11T17:30:59.340Z,100.00
2018-11-11T17:33:29.232Z,100.00
2018-11-11T17:35:59.738Z,100.00
2018-11-11T17:38:29.880Z,100.00
2018-11-11T17:41:18.001Z,100.00
2018-11-11T17:43:47.945Z,100.00
2018-11-11T17:46:18.734Z,100.00
2018-11-11T17:48:48.594Z,100.00
2018-11-11T17:51:18.042Z,100.00
2018-11-11T17:53:47.492Z,100.00
2018-11-11T17:56:36.251Z,100.00
2018-11-11T17:59:06.192Z,100.00
2018-11-11T18:01:35.906Z,100.00
2018-11-11T18:04:05.705Z,100.00
2018-11-11T18:06:35.778Z,100.00
2018-11-11T18:09:07.205Z,100.00
2018-11-11T18:11:44.197Z,100.00
2018-11-11T18:14:14.234Z,100.00
2018-11-11T18:16:43.631Z,100.00
2018-11-11T18:19:13.097Z,100.00
2018-11-11T18:21:43.145Z,100.00
2018-11-11T18:24:13.732Z,100.00
2018-11-11T18:26:43.187Z,100.00
2018-11-11T18:29:12.950Z,100.00
2018-11-11T18:32:01.445Z,100.00
2018-11-11T18:34:49.860Z,100.00
2018-11-11T18:37:19.635Z,100.00
2018-11-11T18:39:49.167Z,100.00
2018-11-11T18:42:19.392Z,100.00
2018-11-11T18:44:48.796Z,100.00
2018-11-11T18:47:18.596Z,100.00
2018-11-11T18:50:07.040Z,100.00
2018-11-11T18:52:37.279Z,100.00
2018-11-11T18:55:25.747Z,100.00
2018-11-11T18:58:14.730Z,100.00
2018-11-11T19:00:44.187Z,100.00
2018-11-11T19:03:33.071Z,100.00
2018-11-11T19:06:02.522Z,100.00
2018-11-11T19:08:32.764Z,100.00
2018-11-11T19:11:02.368Z,100.00
2018-11-11T19:13:50.743Z,100.00
2018-11-11T19:16:20.626Z,100.00
2018-11-11T19:18:50.521Z,100.00
2018-11-11T19:21:20.508Z,100.00
2018-11-11T19:23:50.482Z,100.00
2018-11-11T19:26:20.155Z,100.00
2018-11-11T19:28:49.617Z,100.00
2018-11-11T19:31:19.368Z,100.00
2018-11-11T19:34:07.773Z,100.00
2018-11-11T19:36:37.658Z,100.00
2018-11-11T19:39:28.535Z,100.00
2018-11-11T19:42:17.002Z,100.00
2018-11-11T19:44:46.924Z,100.00
2018-11-11T19:47:35.464Z,100.00
2018-11-11T19:50:04.941Z,100.00
2018-11-11T19:52:53.469Z,100.00
2018-11-11T19:55:23.313Z,100.00
2018-11-11T19:57:52.794Z,100.00
2018-11-11T20:00:41.636Z,100.00
2018-11-11T20:03:30.409Z,100.00
2018-11-11T20:06:19.186Z,100.00
2018-11-11T20:08:48.969Z,100.00
2018-11-11T20:11:37.501Z,100.00
2018-11-11T20:14:07.506Z,100.00
2018-11-11T20:16:37.928Z,100.00
2018-11-11T20:19:07.687Z,100.00
2018-11-11T20:21:37.485Z,100.00
2018-11-11T20:24:07.395Z,100.00
2018-11-11T20:26:36.946Z,100.00
2018-11-11T20:29:06.931Z,100.00
2018-11-11T20:31:37.117Z,100.00
2018-11-11T20:34:07.030Z,100.00
2018-11-11T20:36:36.485Z,100.00
2018-11-11T20:39:09.444Z,100.00
2018-11-11T20:41:57.906Z,100.00
2018-11-11T20:44:27.456Z,100.00
2018-11-11T20:47:16.523Z,100.00
2018-11-11T20:49:46.735Z,100.00
2018-11-11T20:52:16.376Z,100.00
2018-11-11T20:54:45.828Z,100.00
2018-11-11T20:57:15.355Z,100.00
2018-11-11T21:00:04.048Z,100.00
2018-11-11T21:02:33.499Z,100.00
2018-11-11T21:05:03.032Z,100.00
2018-11-11T21:07:33.228Z,100.00
2018-11-11T21:10:02.976Z,100.00
2018-11-11T21:12:33.466Z,100.00
2018-11-11T21:15:03.233Z,100.00
2018-11-11T21:17:33.353Z,100.00
2018-11-11T21:20:03.179Z,100.00
2018-11-11T21:22:32.975Z,100.00
2018-11-11T21:25:02.731Z,100.00
2018-11-11T21:27:32.506Z,100.00
2018-11-11T21:30:02.281Z,100.00
2018-11-11T21:32:51.625Z,100.00
2018-11-11T21:35:21.135Z,100.00
2018-11-11T21:37:51.447Z,100.00
2018-11-11T21:40:39.835Z,100.00
2018-11-11T21:43:09.267Z,100.00
2018-11-11T21:45:38.710Z,100.00
2018-11-11T21:48:26.864Z,100.00
2018-11-11T21:50:56.323Z,100.00
2018-11-11T21:53:45.787Z,100.00
2018-11-11T21:56:34.173Z,100.00
2018-11-11T21:59:03.612Z,100.00
2018-11-11T22:01:33.048Z,100.00
2018-11-11T22:04:21.788Z,100.00
2018-11-11T22:06:51.490Z,100.00
2018-11-11T22:09:21.680Z,100.00
2018-11-11T22:12:10.322Z,100.00
2018-11-11T22:14:40.046Z,100.00
2018-11-11T22:17:28.437Z,100.00
2018-11-11T22:19:58.800Z,100.00
2018-11-11T22:22:29.124Z,100.00
2018-11-11T22:24:58.470Z,100.00
2018-11-11T22:27:46.879Z,100.00
2018-11-11T22:30:34.987Z,100.00
2018-11-11T22:33:04.439Z,100.00
2018-11-11T22:35:33.907Z,100.00
2018-11-11T22:38:03.376Z,100.00
2018-11-11T22:40:52.409Z,100.00
2018-11-11T22:43:21.892Z,100.00
2018-11-11T22:46:11.222Z,100.00
2018-11-11T22:48:41.768Z,100.00
2018-11-11T22:51:30.144Z,100.00
2018-11-11T22:53:59.944Z,100.00
2018-11-11T22:56:29.417Z,100.00
2018-11-11T22:58:59.502Z,100.00
2018-11-11T23:01:29.227Z,100.00
2018-11-11T23:04:17.656Z,100.00
2018-11-11T23:06:47.459Z,100.00
2018-11-11T23:09:16.933Z,100.00
2018-11-11T23:11:46.601Z,100.00
2018-11-11T23:14:16.630Z,100.00
2018-11-11T23:16:46.068Z,100.00
2018-11-11T23:19:16.535Z,100.00
2018-11-11T23:21:45.972Z,100.00
2018-11-11T23:24:16.249Z,100.00
2018-11-11T23:26:46.049Z,100.00
2018-11-11T23:29:16.320Z,100.00
2018-11-11T23:31:46.301Z,100.00
2018-11-11T23:34:35.038Z,100.00
2018-11-11T23:37:23.166Z,100.00
2018-11-11T23:40:12.885Z,100.00
2018-11-11T23:42:43.570Z,100.00
2018-11-11T23:45:13.023Z,100.00
2018-11-11T23:48:01.715Z,100.00
2018-11-11T23:50:31.655Z,100.00
2018-11-11T23:53:01.920Z,100.00
2018-11-11T23:55:32.313Z,100.00
2018-11-11T23:58:02.068Z,100.00
